KDLN/DLN METAR and TAF weather

Enter ICAO airport designator
Station Type Date Time Source
KDLN METAR 2018/07/21 03:53 UTC NOAA

KDLN 210353Z AUTO 20009KT 10SM CLR 20/06 A2999 RMK AO2 SLP100 T02000061 $


Station Type Date Time Source
KDLN Decoded METAR 2018/07/21 03:53 UTC NOAA

DILLON AIRPORT, MT, United States (KDLN) 45-15N 112-33W 1591M
Jul 20, 2018 - 11:53 PM EDT / 2018.07.21 0353 UTC
Wind: from the SSW (200 degrees) at 10 MPH (9 KT):0
Visibility: 10 mile(s):0
Sky conditions: clear
Temperature: 68.0 F (20.0 C)
Dew Point: 43.0 F (6.1 C)
Relative Humidity: 40%
Pressure (altimeter): 29.99 in. Hg (1015 hPa)
ob: KDLN 210353Z AUTO 20009KT 10SM CLR 20/06 A2999 RMK AO2 SLP100 T02000061
cycle: 4

Station Type Date Time Source
KDLN TAF UTC NOAA

Error!


Example: see airport list